sensor_id;sensor_type;location;lat;lon;timestamp;pressure;altitude;pressure_sealevel;temperature;humidity
73453;BME280;61687;56.232;43.854;2023-04-28T00:01:11;100537.56;;;12.18;68.87
73453;BME280;61687;56.232;43.854;2023-04-28T00:03:37;100535.97;;;12.17;68.63
73453;BME280;61687;56.232;43.854;2023-04-28T00:06:03;100534.38;;;12.12;68.84
73453;BME280;61687;56.232;43.854;2023-04-28T00:08:30;100532.34;;;12.09;68.85
73453;BME280;61687;56.232;43.854;2023-04-28T00:10:56;100536.31;;;12.12;68.70
73453;BME280;61687;56.232;43.854;2023-04-28T00:13:23;100537.13;;;12.16;68.87
73453;BME280;61687;56.232;43.854;2023-04-28T00:15:49;100535.19;;;12.16;69.01
73453;BME280;61687;56.232;43.854;2023-04-28T00:18:18;100536.34;;;12.15;69.41
73453;BME280;61687;56.232;43.854;2023-04-28T00:20:44;100540.63;;;12.13;69.61
73453;BME280;61687;56.232;43.854;2023-04-28T00:23:10;100537.47;;;12.11;69.44
73453;BME280;61687;56.232;43.854;2023-04-28T00:25:36;100537.81;;;12.09;69.34
73453;BME280;61687;56.232;43.854;2023-04-28T00:28:02;100539.81;;;12.09;69.61
73453;BME280;61687;56.232;43.854;2023-04-28T00:30:29;100545.72;;;12.11;69.83
73453;BME280;61687;56.232;43.854;2023-04-28T00:32:55;100533.09;;;12.06;69.70
73453;BME280;61687;56.232;43.854;2023-04-28T00:35:21;100535.00;;;12.02;69.55
73453;BME280;61687;56.232;43.854;2023-04-28T00:37:47;100538.09;;;12.00;69.60
73453;BME280;61687;56.232;43.854;2023-04-28T00:40:14;100532.56;;;11.97;69.74
73453;BME280;61687;56.232;43.854;2023-04-28T00:42:41;100532.00;;;11.87;70.01
73453;BME280;61687;56.232;43.854;2023-04-28T00:45:07;100540.53;;;11.79;70.20
73453;BME280;61687;56.232;43.854;2023-04-28T00:47:34;100540.41;;;11.71;70.45
73453;BME280;61687;56.232;43.854;2023-04-28T00:50:03;100531.66;;;11.62;70.70
73453;BME280;61687;56.232;43.854;2023-04-28T00:52:33;100537.84;;;11.55;70.76
73453;BME280;61687;56.232;43.854;2023-04-28T00:54:59;100533.81;;;11.49;70.96
73453;BME280;61687;56.232;43.854;2023-04-28T00:57:25;100532.50;;;11.39;71.08
73453;BME280;61687;56.232;43.854;2023-04-28T00:59:51;100537.38;;;11.26;71.63
73453;BME280;61687;56.232;43.854;2023-04-28T01:02:19;100542.72;;;11.19;71.48
73453;BME280;61687;56.232;43.854;2023-04-28T01:04:45;100537.22;;;11.15;71.68
73453;BME280;61687;56.232;43.854;2023-04-28T01:07:12;100534.81;;;11.14;71.75
73453;BME280;61687;56.232;43.854;2023-04-28T01:09:39;100534.31;;;11.08;71.80
73453;BME280;61687;56.232;43.854;2023-04-28T01:12:06;100535.06;;;11.05;71.90
73453;BME280;61687;56.232;43.854;2023-04-28T01:14:41;100534.56;;;10.99;71.90
73453;BME280;61687;56.232;43.854;2023-04-28T01:17:08;100536.84;;;10.94;71.98
73453;BME280;61687;56.232;43.854;2023-04-28T01:19:35;100541.00;;;10.87;72.35
73453;BME280;61687;56.232;43.854;2023-04-28T01:22:01;100535.03;;;10.82;72.38
73453;BME280;61687;56.232;43.854;2023-04-28T01:24:27;100541.19;;;10.75;72.53
73453;BME280;61687;56.232;43.854;2023-04-28T01:26:56;100539.09;;;10.68;72.70
73453;BME280;61687;56.232;43.854;2023-04-28T01:29:22;100544.94;;;10.67;72.61
73453;BME280;61687;56.232;43.854;2023-04-28T01:31:48;100544.50;;;10.65;72.51
73453;BME280;61687;56.232;43.854;2023-04-28T01:34:16;100543.28;;;10.62;72.68
73453;BME280;61687;56.232;43.854;2023-04-28T01:36:41;100550.72;;;10.62;72.84
73453;BME280;61687;56.232;43.854;2023-04-28T01:39:09;100552.22;;;10.59;72.82
73453;BME280;61687;56.232;43.854;2023-04-28T01:41:35;100549.84;;;10.57;72.92
73453;BME280;61687;56.232;43.854;2023-04-28T01:44:03;100553.75;;;10.56;73.02
73453;BME280;61687;56.232;43.854;2023-04-28T01:46:33;100550.28;;;10.59;73.05
73453;BME280;61687;56.232;43.854;2023-04-28T01:48:59;100556.91;;;10.58;73.17
73453;BME280;61687;56.232;43.854;2023-04-28T01:51:26;100559.66;;;10.58;73.04
73453;BME280;61687;56.232;43.854;2023-04-28T01:53:52;100558.06;;;10.57;73.01
73453;BME280;61687;56.232;43.854;2023-04-28T01:56:18;100558.84;;;10.58;73.00
73453;BME280;61687;56.232;43.854;2023-04-28T01:58:44;100562.41;;;10.58;73.01
73453;BME280;61687;56.232;43.854;2023-04-28T02:01:11;100561.25;;;10.59;73.11
73453;BME280;61687;56.232;43.854;2023-04-28T02:03:37;100560.50;;;10.63;72.91
73453;BME280;61687;56.232;43.854;2023-04-28T02:06:04;100561.38;;;10.67;72.98
73453;BME280;61687;56.232;43.854;2023-04-28T02:08:29;100563.03;;;10.71;72.89
73453;BME280;61687;56.232;43.854;2023-04-28T02:10:56;100563.13;;;10.75;72.79
73453;BME280;61687;56.232;43.854;2023-04-28T02:13:23;100569.88;;;10.81;72.56
73453;BME280;61687;56.232;43.854;2023-04-28T02:15:50;100571.47;;;10.82;72.30
73453;BME280;61687;56.232;43.854;2023-04-28T02:18:16;100573.47;;;10.85;72.22
73453;BME280;61687;56.232;43.854;2023-04-28T02:20:42;100573.91;;;10.87;72.15
73453;BME280;61687;56.232;43.854;2023-04-28T02:23:09;100577.47;;;10.88;72.13
73453;BME280;61687;56.232;43.854;2023-04-28T02:25:35;100583.78;;;10.92;72.17
73453;BME280;61687;56.232;43.854;2023-04-28T02:28:02;100583.88;;;10.96;72.22
73453;BME280;61687;56.232;43.854;2023-04-28T02:30:28;100579.59;;;10.98;72.17
73453;BME280;61687;56.232;43.854;2023-04-28T02:32:55;100574.19;;;11.02;72.04
73453;BME280;61687;56.232;43.854;2023-04-28T02:35:21;100576.69;;;11.11;71.98
73453;BME280;61687;56.232;43.854;2023-04-28T02:37:47;100577.63;;;11.19;71.88
73453;BME280;61687;56.232;43.854;2023-04-28T02:40:13;100578.91;;;11.25;71.48
73453;BME280;61687;56.232;43.854;2023-04-28T02:42:39;100577.50;;;11.35;71.29
73453;BME280;61687;56.232;43.854;2023-04-28T02:45:05;100570.59;;;11.44;71.04
73453;BME280;61687;56.232;43.854;2023-04-28T02:47:33;100582.09;;;11.54;70.88
73453;BME280;61687;56.232;43.854;2023-04-28T02:49:59;100578.75;;;11.64;70.80
73453;BME280;61687;56.232;43.854;2023-04-28T02:52:26;100580.03;;;11.70;70.02
73453;BME280;61687;56.232;43.854;2023-04-28T02:54:52;100582.16;;;11.81;69.72
73453;BME280;61687;56.232;43.854;2023-04-28T02:57:22;100582.31;;;11.92;69.37
73453;BME280;61687;56.232;43.854;2023-04-28T02:59:49;100585.16;;;11.99;69.34
73453;BME280;61687;56.232;43.854;2023-04-28T03:02:15;100586.50;;;12.09;68.83
73453;BME280;61687;56.232;43.854;2023-04-28T03:04:41;100587.06;;;12.22;68.33
73453;BME280;61687;56.232;43.854;2023-04-28T03:07:08;100589.59;;;12.34;67.77
73453;BME280;61687;56.232;43.854;2023-04-28T03:09:35;100593.25;;;12.45;66.86
73453;BME280;61687;56.232;43.854;2023-04-28T03:12:01;100592.28;;;12.61;66.11
73453;BME280;61687;56.232;43.854;2023-04-28T03:14:30;100588.91;;;12.75;65.46
73453;BME280;61687;56.232;43.854;2023-04-28T03:16:56;100593.00;;;12.88;65.05
73453;BME280;61687;56.232;43.854;2023-04-28T03:19:22;100598.59;;;12.99;64.61
73453;BME280;61687;56.232;43.854;2023-04-28T03:21:48;100595.97;;;13.14;63.80
73453;BME280;61687;56.232;43.854;2023-04-28T03:24:15;100598.00;;;13.21;63.91
73453;BME280;61687;56.232;43.854;2023-04-28T03:26:41;100598.50;;;13.30;63.23
73453;BME280;61687;56.232;43.854;2023-04-28T03:29:07;100601.31;;;13.37;62.88
73453;BME280;61687;56.232;43.854;2023-04-28T03:31:33;100601.81;;;13.47;62.32
73453;BME280;61687;56.232;43.854;2023-04-28T03:34:00;100608.59;;;13.56;61.68
73453;BME280;61687;56.232;43.854;2023-04-28T03:36:28;100609.44;;;13.64;61.88
73453;BME280;61687;56.232;43.854;2023-04-28T03:38:58;100609.91;;;13.73;61.57
73453;BME280;61687;56.232;43.854;2023-04-28T03:41:24;100609.59;;;13.82;61.24
73453;BME280;61687;56.232;43.854;2023-04-28T03:44:28;100597.44;;;13.91;61.59
73453;BME280;61687;56.232;43.854;2023-04-28T03:46:54;100602.22;;;13.97;61.29
73453;BME280;61687;56.232;43.854;2023-04-28T03:49:21;100604.22;;;14.04;60.91
73453;BME280;61687;56.232;43.854;2023-04-28T03:51:47;100609.78;;;14.11;60.62
73453;BME280;61687;56.232;43.854;2023-04-28T03:54:16;100610.22;;;14.17;60.48
73453;BME280;61687;56.232;43.854;2023-04-28T03:56:43;100605.94;;;14.30;59.94
73453;BME280;61687;56.232;43.854;2023-04-28T03:59:09;100604.41;;;14.37;59.83
73453;BME280;61687;56.232;43.854;2023-04-28T04:01:37;100611.50;;;14.41;59.56
73453;BME280;61687;56.232;43.854;2023-04-28T04:04:03;100611.53;;;14.52;59.25
73453;BME280;61687;56.232;43.854;2023-04-28T04:06:30;100613.19;;;14.60;59.23
73453;BME280;61687;56.232;43.854;2023-04-28T04:08:57;100610.09;;;14.73;59.06
73453;BME280;61687;56.232;43.854;2023-04-28T04:11:23;100599.09;;;14.84;57.86
73453;BME280;61687;56.232;43.854;2023-04-28T04:13:49;100607.81;;;14.97;57.27
73453;BME280;61687;56.232;43.854;2023-04-28T04:16:16;100613.75;;;15.06;56.88
73453;BME280;61687;56.232;43.854;2023-04-28T04:18:42;100618.47;;;15.16;56.87
73453;BME280;61687;56.232;43.854;2023-04-28T04:21:15;100620.47;;;15.27;56.02
73453;BME280;61687;56.232;43.854;2023-04-28T04:23:41;100614.97;;;15.34;56.38
73453;BME280;61687;56.232;43.854;2023-04-28T04:26:07;100611.03;;;15.42;56.09
73453;BME280;61687;56.232;43.854;2023-04-28T04:28:34;100619.31;;;15.50;55.83
73453;BME280;61687;56.232;43.854;2023-04-28T04:31:00;100613.41;;;15.58;55.61
73453;BME280;61687;56.232;43.854;2023-04-28T04:33:28;100609.47;;;15.70;54.88
73453;BME280;61687;56.232;43.854;2023-04-28T04:35:54;100620.50;;;15.78;54.37
73453;BME280;61687;56.232;43.854;2023-04-28T04:38:21;100622.47;;;15.84;53.90
73453;BME280;61687;56.232;43.854;2023-04-28T04:40:47;100628.41;;;15.90;53.98
73453;BME280;61687;56.232;43.854;2023-04-28T04:43:13;100626.44;;;15.94;54.55
73453;BME280;61687;56.232;43.854;2023-04-28T04:45:45;100625.25;;;15.99;54.65
73453;BME280;61687;56.232;43.854;2023-04-28T04:48:12;100620.13;;;16.05;54.04
73453;BME280;61687;56.232;43.854;2023-04-28T04:50:40;100626.81;;;16.14;53.29
73453;BME280;61687;56.232;43.854;2023-04-28T04:53:06;100627.56;;;16.22;53.40
73453;BME280;61687;56.232;43.854;2023-04-28T04:55:32;100633.47;;;16.31;53.98
73453;BME280;61687;56.232;43.854;2023-04-28T04:57:58;100626.72;;;16.43;53.19
73453;BME280;61687;56.232;43.854;2023-04-28T05:00:43;100632.22;;;16.54;53.11
73453;BME280;61687;56.232;43.854;2023-04-28T05:03:10;100640.50;;;16.62;52.64
73453;BME280;61687;56.232;43.854;2023-04-28T05:05:38;100629.81;;;16.64;52.13
73453;BME280;61687;56.232;43.854;2023-04-28T05:08:25;100630.56;;;16.75;52.32
73453;BME280;61687;56.232;43.854;2023-04-28T05:10:51;100630.91;;;16.84;51.99
73453;BME280;61687;56.232;43.854;2023-04-28T05:13:18;100630.47;;;16.93;52.14
73453;BME280;61687;56.232;43.854;2023-04-28T05:15:46;100638.72;;;17.08;52.08
73453;BME280;61687;56.232;43.854;2023-04-28T05:18:41;100631.56;;;17.17;52.12
73453;BME280;61687;56.232;43.854;2023-04-28T05:21:07;100633.88;;;17.26;52.01
73453;BME280;61687;56.232;43.854;2023-04-28T05:23:33;100633.41;;;17.35;51.20
73453;BME280;61687;56.232;43.854;2023-04-28T05:25:59;100644.44;;;17.42;50.62
73453;BME280;61687;56.232;43.854;2023-04-28T05:28:25;100638.06;;;17.49;50.93
73453;BME280;61687;56.232;43.854;2023-04-28T05:30:53;100640.38;;;17.58;50.66
73453;BME280;61687;56.232;43.854;2023-04-28T05:33:19;100641.94;;;17.63;50.00
73453;BME280;61687;56.232;43.854;2023-04-28T05:35:46;100636.31;;;17.70;49.90
73453;BME280;61687;56.232;43.854;2023-04-28T05:38:13;100640.19;;;17.80;49.42
73453;BME280;61687;56.232;43.854;2023-04-28T05:40:41;100643.31;;;17.85;49.92
73453;BME280;61687;56.232;43.854;2023-04-28T05:43:07;100625.41;;;17.94;49.80
73453;BME280;61687;56.232;43.854;2023-04-28T05:45:33;100631.69;;;18.05;49.11
73453;BME280;61687;56.232;43.854;2023-04-28T05:47:59;100624.81;;;18.17;48.80
73453;BME280;61687;56.232;43.854;2023-04-28T05:50:25;100625.94;;;18.23;48.57
73453;BME280;61687;56.232;43.854;2023-04-28T05:52:52;100634.91;;;18.35;48.66
73453;BME280;61687;56.232;43.854;2023-04-28T05:55:19;100628.44;;;18.49;48.11
73453;BME280;61687;56.232;43.854;2023-04-28T05:57:45;100624.41;;;18.53;48.05
73453;BME280;61687;56.232;43.854;2023-04-28T06:00:11;100630.63;;;18.65;48.27
73453;BME280;61687;56.232;43.854;2023-04-28T06:02:40;100628.06;;;18.78;47.70
73453;BME280;61687;56.232;43.854;2023-04-28T06:05:06;100628.72;;;18.89;47.68
73453;BME280;61687;56.232;43.854;2023-04-28T06:07:33;100624.25;;;18.99;47.10
73453;BME280;61687;56.232;43.854;2023-04-28T06:09:59;100618.66;;;19.02;47.33
73453;BME280;61687;56.232;43.854;2023-04-28T06:12:25;100623.63;;;19.15;47.01
73453;BME280;61687;56.232;43.854;2023-04-28T06:14:51;100622.69;;;19.25;47.22
73453;BME280;61687;56.232;43.854;2023-04-28T06:17:20;100622.50;;;19.36;46.89
73453;BME280;61687;56.232;43.854;2023-04-28T06:19:47;100627.50;;;19.49;46.77
73453;BME280;61687;56.232;43.854;2023-04-28T06:22:16;100632.53;;;19.57;46.09
73453;BME280;61687;56.232;43.854;2023-04-28T06:24:42;100629.13;;;19.70;46.56
73453;BME280;61687;56.232;43.854;2023-04-28T06:27:11;100632.47;;;19.85;46.69
73453;BME280;61687;56.232;43.854;2023-04-28T06:29:38;100633.06;;;19.96;45.92
73453;BME280;61687;56.232;43.854;2023-04-28T06:32:04;100634.50;;;20.05;45.64
73453;BME280;61687;56.232;43.854;2023-04-28T06:34:30;100634.75;;;20.14;45.48
73453;BME280;61687;56.232;43.854;2023-04-28T06:36:57;100636.63;;;20.21;44.95
73453;BME280;61687;56.232;43.854;2023-04-28T06:39:26;100618.19;;;20.27;44.92
73453;BME280;61687;56.232;43.854;2023-04-28T06:41:52;100624.78;;;20.37;44.97
73453;BME280;61687;56.232;43.854;2023-04-28T06:44:20;100615.41;;;20.47;44.30
73453;BME280;61687;56.232;43.854;2023-04-28T06:46:47;100622.41;;;20.55;44.81
73453;BME280;61687;56.232;43.854;2023-04-28T06:49:13;100617.91;;;20.62;44.29
73453;BME280;61687;56.232;43.854;2023-04-28T06:51:39;100620.91;;;20.71;43.63
73453;BME280;61687;56.232;43.854;2023-04-28T06:54:05;100625.09;;;20.79;43.72
73453;BME280;61687;56.232;43.854;2023-04-28T06:56:34;100628.38;;;20.94;43.75
73453;BME280;61687;56.232;43.854;2023-04-28T06:59:00;100639.22;;;21.09;43.20
73453;BME280;61687;56.232;43.854;2023-04-28T07:01:28;100624.16;;;21.23;42.74
73453;BME280;61687;56.232;43.854;2023-04-28T07:03:54;100632.69;;;21.32;42.95
73453;BME280;61687;56.232;43.854;2023-04-28T07:06:21;100636.72;;;21.48;43.31
73453;BME280;61687;56.232;43.854;2023-04-28T07:08:46;100632.38;;;21.63;43.31
73453;BME280;61687;56.232;43.854;2023-04-28T07:11:12;100632.03;;;21.78;41.43
73453;BME280;61687;56.232;43.854;2023-04-28T07:13:38;100629.75;;;21.89;41.43
73453;BME280;61687;56.232;43.854;2023-04-28T07:16:04;100624.13;;;22.06;41.19
73453;BME280;61687;56.232;43.854;2023-04-28T07:18:30;100623.16;;;22.12;40.05
73453;BME280;61687;56.232;43.854;2023-04-28T07:20:56;100635.59;;;22.24;39.74
73453;BME280;61687;56.232;43.854;2023-04-28T07:23:22;100631.72;;;22.35;39.24
73453;BME280;61687;56.232;43.854;2023-04-28T07:25:48;100627.16;;;22.41;38.43
73453;BME280;61687;56.232;43.854;2023-04-28T07:28:14;100629.84;;;22.44;38.33
73453;BME280;61687;56.232;43.854;2023-04-28T07:30:40;100626.78;;;22.55;38.19
73453;BME280;61687;56.232;43.854;2023-04-28T07:33:06;100617.75;;;22.64;37.80
73453;BME280;61687;56.232;43.854;2023-04-28T07:35:32;100621.09;;;22.72;37.95
73453;BME280;61687;56.232;43.854;2023-04-28T07:38:01;100612.06;;;22.81;37.86
73453;BME280;61687;56.232;43.854;2023-04-28T07:40:27;100609.03;;;22.88;37.49
73453;BME280;61687;56.232;43.854;2023-04-28T07:42:53;100606.81;;;22.96;37.57
73453;BME280;61687;56.232;43.854;2023-04-28T07:45:19;100610.06;;;22.94;37.83
73453;BME280;61687;56.232;43.854;2023-04-28T07:47:45;100612.88;;;23.07;37.32
73453;BME280;61687;56.232;43.854;2023-04-28T07:50:11;100601.34;;;23.31;37.57
73453;BME280;61687;56.232;43.854;2023-04-28T07:52:37;100606.81;;;23.48;37.11
73453;BME280;61687;56.232;43.854;2023-04-28T07:55:03;100604.50;;;23.33;36.56
73453;BME280;61687;56.232;43.854;2023-04-28T07:57:31;100609.84;;;23.40;36.85
73453;BME280;61687;56.232;43.854;2023-04-28T07:59:57;100601.13;;;23.38;37.37
73453;BME280;61687;56.232;43.854;2023-04-28T08:02:23;100619.59;;;23.36;36.74
73453;BME280;61687;56.232;43.854;2023-04-28T08:04:50;100618.22;;;23.14;36.46
73453;BME280;61687;56.232;43.854;2023-04-28T08:07:16;100609.19;;;22.97;36.77
73453;BME280;61687;56.232;43.854;2023-04-28T08:09:42;100611.28;;;22.80;36.96
73453;BME280;61687;56.232;43.854;2023-04-28T08:12:13;100610.59;;;22.63;37.14
73453;BME280;61687;56.232;43.854;2023-04-28T08:14:39;100611.25;;;22.54;37.73
73453;BME280;61687;56.232;43.854;2023-04-28T08:17:06;100614.03;;;22.54;37.71
73453;BME280;61687;56.232;43.854;2023-04-28T08:19:32;100612.63;;;22.89;35.86
73453;BME280;61687;56.232;43.854;2023-04-28T08:21:58;100605.38;;;23.04;35.32
73453;BME280;61687;56.232;43.854;2023-04-28T08:24:24;100606.59;;;23.16;35.61
73453;BME280;61687;56.232;43.854;2023-04-28T08:26:50;100612.22;;;23.29;34.98
73453;BME280;61687;56.232;43.854;2023-04-28T08:29:16;100594.75;;;23.25;35.52
73453;BME280;61687;56.232;43.854;2023-04-28T08:31:42;100591.75;;;23.32;35.42
73453;BME280;61687;56.232;43.854;2023-04-28T08:34:08;100588.97;;;23.67;34.40
73453;BME280;61687;56.232;43.854;2023-04-28T08:36:34;100592.91;;;23.57;33.72
73453;BME280;61687;56.232;43.854;2023-04-28T08:39:00;100588.81;;;23.49;34.62
73453;BME280;61687;56.232;43.854;2023-04-28T08:41:31;100592.16;;;23.56;34.94
73453;BME280;61687;56.232;43.854;2023-04-28T08:43:57;100589.63;;;23.71;34.93
73453;BME280;61687;56.232;43.854;2023-04-28T08:46:26;100581.84;;;23.89;33.74
73453;BME280;61687;56.232;43.854;2023-04-28T08:48:58;100580.28;;;23.87;33.83
73453;BME280;61687;56.232;43.854;2023-04-28T08:51:40;100586.91;;;23.81;33.21
73453;BME280;61687;56.232;43.854;2023-04-28T08:54:08;100583.19;;;23.84;33.27
73453;BME280;61687;56.232;43.854;2023-04-28T08:56:38;100585.22;;;23.83;32.48
73453;BME280;61687;56.232;43.854;2023-04-28T08:59:04;100582.50;;;23.93;32.32
73453;BME280;61687;56.232;43.854;2023-04-28T09:01:30;100576.91;;;23.93;31.99
73453;BME280;61687;56.232;43.854;2023-04-28T09:04:02;100577.28;;;23.82;32.02
73453;BME280;61687;56.232;43.854;2023-04-28T09:06:35;100569.78;;;23.79;32.73
73453;BME280;61687;56.232;43.854;2023-04-28T09:09:18;100568.88;;;23.82;32.14
73453;BME280;61687;56.232;43.854;2023-04-28T09:14:21;100571.97;;;23.62;32.60
73453;BME280;61687;56.232;43.854;2023-04-28T09:16:48;100581.06;;;23.53;33.14
73453;BME280;61687;56.232;43.854;2023-04-28T09:19:15;100574.81;;;23.49;33.11
73453;BME280;61687;56.232;43.854;2023-04-28T09:21:56;100581.88;;;23.40;33.41
73453;BME280;61687;56.232;43.854;2023-04-28T09:24:38;100582.88;;;23.47;33.40
73453;BME280;61687;56.232;43.854;2023-04-28T09:27:09;100587.00;;;23.55;33.34
73453;BME280;61687;56.232;43.854;2023-04-28T09:29:37;100579.34;;;23.68;33.30
73453;BME280;61687;56.232;43.854;2023-04-28T09:34:46;100581.22;;;24.07;32.46
73453;BME280;61687;56.232;43.854;2023-04-28T09:37:19;100580.72;;;24.21;32.05
73453;BME280;61687;56.232;43.854;2023-04-28T09:39:52;100581.81;;;24.24;32.39
73453;BME280;61687;56.232;43.854;2023-04-28T09:47:40;100587.13;;;23.86;32.87
73453;BME280;61687;56.232;43.854;2023-04-28T09:50:09;100595.19;;;23.84;33.32
73453;BME280;61687;56.232;43.854;2023-04-28T09:52:37;100601.03;;;23.77;33.52
73453;BME280;61687;56.232;43.854;2023-04-28T09:55:05;100607.69;;;23.57;33.88
73453;BME280;61687;56.232;43.854;2023-04-28T09:57:33;100608.28;;;23.39;34.40
73453;BME280;61687;56.232;43.854;2023-04-28T10:00:00;100607.47;;;23.13;34.38
73453;BME280;61687;56.232;43.854;2023-04-28T10:02:34;100609.94;;;22.85;34.88
73453;BME280;61687;56.232;43.854;2023-04-28T10:05:00;100627.91;;;22.58;36.04
73453;BME280;61687;56.232;43.854;2023-04-28T10:07:26;100640.59;;;22.16;37.28
73453;BME280;61687;56.232;43.854;2023-04-28T10:09:54;100644.25;;;21.67;38.73
73453;BME280;61687;56.232;43.854;2023-04-28T10:12:22;100650.75;;;21.27;39.76
73453;BME280;61687;56.232;43.854;2023-04-28T10:14:49;100649.09;;;20.93;40.43
73453;BME280;61687;56.232;43.854;2023-04-28T10:17:16;100643.81;;;20.79;40.87
73453;BME280;61687;56.232;43.854;2023-04-28T10:19:46;100655.16;;;20.68;40.99
73453;BME280;61687;56.232;43.854;2023-04-28T10:22:40;100654.63;;;20.56;41.73
73453;BME280;61687;56.232;43.854;2023-04-28T10:27:46;100673.16;;;20.43;41.65
73453;BME280;61687;56.232;43.854;2023-04-28T10:32:40;100679.31;;;20.54;41.51
73453;BME280;61687;56.232;43.854;2023-04-28T10:40:36;100684.31;;;21.04;40.62
73453;BME280;61687;56.232;43.854;2023-04-28T10:43:04;100681.19;;;21.18;40.57
73453;BME280;61687;56.232;43.854;2023-04-28T10:48:21;100696.16;;;21.44;41.57
73453;BME280;61687;56.232;43.854;2023-04-28T10:56:20;100679.63;;;21.87;41.24
73453;BME280;61687;56.232;43.854;2023-04-28T10:58:47;100677.63;;;21.87;41.02
73453;BME280;61687;56.232;43.854;2023-04-28T11:03:49;100678.97;;;22.12;40.75
73453;BME280;61687;56.232;43.854;2023-04-28T11:06:23;100667.31;;;22.30;40.75
73453;BME280;61687;56.232;43.854;2023-04-28T11:08:55;100672.72;;;22.38;40.66
73453;BME280;61687;56.232;43.854;2023-04-28T11:11:24;100665.00;;;22.29;40.33
73453;BME280;61687;56.232;43.854;2023-04-28T11:13:53;100671.13;;;22.37;40.41
73453;BME280;61687;56.232;43.854;2023-04-28T11:16:21;100671.13;;;22.37;40.02
73453;BME280;61687;56.232;43.854;2023-04-28T11:21:19;100669.41;;;22.43;39.78
73453;BME280;61687;56.232;43.854;2023-04-28T11:23:46;100666.44;;;22.34;39.48
73453;BME280;61687;56.232;43.854;2023-04-28T11:26:13;100668.31;;;22.24;39.15
73453;BME280;61687;56.232;43.854;2023-04-28T11:28:53;100662.63;;;22.27;40.01
73453;BME280;61687;56.232;43.854;2023-04-28T11:31:20;100667.78;;;22.29;38.85
73453;BME280;61687;56.232;43.854;2023-04-28T11:33:53;100660.19;;;22.29;38.62
73453;BME280;61687;56.232;43.854;2023-04-28T11:36:29;100655.34;;;22.47;38.64
73453;BME280;61687;56.232;43.854;2023-04-28T11:38:58;100653.66;;;22.92;37.87
73453;BME280;61687;56.232;43.854;2023-04-28T11:41:24;100649.78;;;23.41;36.12
73453;BME280;61687;56.232;43.854;2023-04-28T11:43:52;100649.31;;;23.55;35.50
73453;BME280;61687;56.232;43.854;2023-04-28T11:46:24;100648.91;;;23.92;34.50
73453;BME280;61687;56.232;43.854;2023-04-28T11:49:04;100644.41;;;23.95;34.82
73453;BME280;61687;56.232;43.854;2023-04-28T11:51:37;100650.38;;;23.84;34.23
73453;BME280;61687;56.232;43.854;2023-04-28T11:54:05;100643.50;;;23.63;35.16
73453;BME280;61687;56.232;43.854;2023-04-28T11:56:42;100637.34;;;23.55;34.65
73453;BME280;61687;56.232;43.854;2023-04-28T11:59:11;100638.91;;;23.56;34.90
73453;BME280;61687;56.232;43.854;2023-04-28T12:01:49;100634.31;;;23.62;35.35
73453;BME280;61687;56.232;43.854;2023-04-28T12:07:15;100627.41;;;23.89;35.19
73453;BME280;61687;56.232;43.854;2023-04-28T12:10:13;100623.16;;;24.42;34.63
73453;BME280;61687;56.232;43.854;2023-04-28T12:12:44;100617.19;;;25.16;33.37
73453;BME280;61687;56.232;43.854;2023-04-28T12:15:12;100612.75;;;25.47;32.62
73453;BME280;61687;56.232;43.854;2023-04-28T12:17:40;100606.34;;;25.46;32.59
73453;BME280;61687;56.232;43.854;2023-04-28T12:20:11;100606.84;;;25.54;32.42
73453;BME280;61687;56.232;43.854;2023-04-28T12:22:53;100602.47;;;25.53;32.14
73453;BME280;61687;56.232;43.854;2023-04-28T12:25:19;100594.00;;;25.34;32.75
73453;BME280;61687;56.232;43.854;2023-04-28T12:27:59;100597.09;;;25.18;33.29
73453;BME280;61687;56.232;43.854;2023-04-28T12:30:29;100595.56;;;24.85;33.33
73453;BME280;61687;56.232;43.854;2023-04-28T12:32:55;100598.06;;;24.61;33.67
73453;BME280;61687;56.232;43.854;2023-04-28T12:35:23;100598.56;;;24.37;33.77
73453;BME280;61687;56.232;43.854;2023-04-28T12:37:50;100593.66;;;24.06;33.89
73453;BME280;61687;56.232;43.854;2023-04-28T12:40:17;100596.44;;;23.83;34.72
73453;BME280;61687;56.232;43.854;2023-04-28T12:42:45;100593.09;;;23.76;34.33
73453;BME280;61687;56.232;43.854;2023-04-28T12:45:11;100588.19;;;23.67;35.16
73453;BME280;61687;56.232;43.854;2023-04-28T12:47:37;100578.38;;;23.49;34.93
73453;BME280;61687;56.232;43.854;2023-04-28T12:50:05;100581.78;;;23.31;35.24
73453;BME280;61687;56.232;43.854;2023-04-28T12:52:31;100570.69;;;23.14;35.70
73453;BME280;61687;56.232;43.854;2023-04-28T12:54:59;100568.81;;;22.98;35.57
73453;BME280;61687;56.232;43.854;2023-04-28T12:57:25;100566.69;;;23.02;35.68
73453;BME280;61687;56.232;43.854;2023-04-28T12:59:51;100562.94;;;23.57;35.12
73453;BME280;61687;56.232;43.854;2023-04-28T13:02:17;100566.72;;;25.25;33.09
73453;BME280;61687;56.232;43.854;2023-04-28T13:04:44;100553.72;;;27.26;29.94
73453;BME280;61687;56.232;43.854;2023-04-28T13:07:14;100544.69;;;29.32;27.77
73453;BME280;61687;56.232;43.854;2023-04-28T13:09:41;100549.88;;;31.04;25.74
73453;BME280;61687;56.232;43.854;2023-04-28T13:12:08;100539.66;;;32.75;24.11
73453;BME280;61687;56.232;43.854;2023-04-28T13:14:34;100536.38;;;33.89;22.29
73453;BME280;61687;56.232;43.854;2023-04-28T13:17:00;100538.22;;;34.78;21.64
73453;BME280;61687;56.232;43.854;2023-04-28T13:19:28;100523.41;;;35.30;20.85
73453;BME280;61687;56.232;43.854;2023-04-28T13:21:56;100521.41;;;36.15;20.27